Lyman, Wyoming
Current Conditions -  °F | °C
As of 9:35 PM on Saturday 22 Nov 2014 (Local Time) from KFBR Reporting Station
Overcast Overcast  
Wind Chill: 18°   Ceiling: 3900
Heat Index: 30°   Visibility: 10mi
Dew Point: 27°   Wind: 17mph
Humidity: 88%   Direction: 260°W
Pressure: 29.84"   Gusts: 22mph
Location:  41.33°N, 110.29°W
Report Text: KFBR 230435Z AUTO 26015G19KT 10SM OVC039 M01/M03 A2984 RMK AO2 T10101028
Loading
Personal Weather Stations






























Interactive Weather Map New forecast layout! Learn more

10-Day Weather Forecast

Advertisements
Track Severe Weather on mobile